Allen's Hourly Summary for Sunday, July 8, 2018
Hour Temp
(f)
RH
(%)
Solar Rad.
(MJ/m2)
Rainfall
(in)
Wind
(mph)
7/8/2018 12:00 AM 81 60 0 0 1.47
7/8/2018 1:00 AM 80 64 0 0 1
7/8/2018 2:00 AM 78 68 0 0 0.51
7/8/2018 3:00 AM 77 74 0 0 0.62
7/8/2018 4:00 AM 76 76 0 0 0.41
7/8/2018 5:00 AM 75 78 0 0 0.21
7/8/2018 6:00 AM 74 79 0 0 0.51
7/8/2018 7:00 AM 73 85 0.03 0 0.91
7/8/2018 8:00 AM 74 77 0.48 0 2.15
7/8/2018 9:00 AM 78 70 1.19 0 2.96
7/8/2018 10:00 AM 80 63 1.88 0 3.03
7/8/2018 11:00 AM 83 54 2.3 0 3.26
7/8/2018 12:00 PM 85 49 2.96 0 3.78
7/8/2018 1:00 PM 87 46 3.26 0 4.08
7/8/2018 2:00 PM 89 39 3.4 0 4.32
7/8/2018 3:00 PM 91 36 3.04 0 4.89
7/8/2018 4:00 PM 92 35 2.63 0 5.11
7/8/2018 5:00 PM 92 34 2.07 0 5.03
7/8/2018 6:00 PM 92 34 1.55 0 4.59
7/8/2018 7:00 PM 91 34 1.1 0 4
7/8/2018 8:00 PM 87 46 0.28 0 3.82
7/8/2018 9:00 PM 83 51 0.05 0.13 3.5
7/8/2018 10:00 PM 73 85 0 0.18 0.22
7/8/2018 11:00 PM 75 84 0 0 0.02
Data Summary 81 59 26.22 0.31 2.52